Time;durP1;ratioP1;P1;durP2;ratioP2;P2;SDS_P1;SDS_P2;PMS_P1;PMS_P2;Temp;Humidity;BMP_temperature;BMP_pressure;BME280_temperature;BME280_humidity;BME280_pressure;Samples;Min_cycle;Max_cycle;Signal;HPM_P1;HPM_P2
2022/04/21 00:00:30;;;;;;;;;;;20.40;34.10;;;;;;5129565;27;19926;-52
2022/04/21 00:02:57;;;;;;;;;;;20.50;34.20;;;;;;5133536;27;19930;-53
2022/04/21 00:05:24;;;;;;;;;;;20.40;34.10;;;;;;5132659;27;19927;-49
2022/04/21 00:07:54;;;;;;;;;;;20.50;34.20;;;;;;5129539;27;19931;-52
2022/04/21 00:10:21;;;;;;;;;;;20.50;34.30;;;;;;5132698;27;20433;-53
2022/04/21 00:12:48;;;;;;;;;;;20.40;34.20;;;;;;5130587;27;19923;-49
2022/04/21 00:15:14;;;;;;;;;;;20.40;34.20;;;;;;5126900;27;19923;-50
2022/04/21 00:17:44;;;;;;;;;;;20.40;34.20;;;;;;5123406;27;19934;-46
2022/04/21 00:20:14;;;;;;;;;;;20.40;34.20;;;;;;5132397;27;19923;-49
2022/04/21 00:25:28;;;;;;;;;;;20.50;34.30;;;;;;5127931;27;19923;-52
2022/04/21 00:27:55;;;;;;;;;;;20.50;34.30;;;;;;5129414;27;19970;-49
2022/04/21 00:30:23;;;;;;;;;;;20.50;34.30;;;;;;5129954;27;19976;-55
2022/04/21 00:32:50;;;;;;;;;;;20.50;34.30;;;;;;5130252;27;19924;-51
2022/04/21 00:35:18;;;;;;;;;;;20.50;34.30;;;;;;5128252;27;19923;-53
2022/04/21 00:37:45;;;;;;;;;;;20.50;34.30;;;;;;5130457;27;19937;-49
2022/04/21 00:40:13;;;;;;;;;;;20.50;34.30;;;;;;5136150;27;19927;-52
2022/04/21 00:42:41;;;;;;;;;;;20.50;34.40;;;;;;5128445;27;19934;-52
2022/04/21 00:45:09;;;;;;;;;;;20.50;34.40;;;;;;5137984;27;20324;-49
2022/04/21 00:47:40;;;;;;;;;;;20.50;34.40;;;;;;5123412;27;21785;-50
2022/04/21 00:50:11;;;;;;;;;;;20.50;34.40;;;;;;5127344;27;19923;-55
2022/04/21 00:52:38;;;;;;;;;;;20.50;34.40;;;;;;5127042;27;19923;-51
2022/04/21 00:55:06;;;;;;;;;;;20.50;34.40;;;;;;5124824;27;19924;-51
2022/04/21 00:57:32;;;;;;;;;;;20.50;34.40;;;;;;5141195;27;19923;-51
2022/04/21 01:00:00;;;;;;;;;;;20.50;34.40;;;;;;5127753;27;19929;-53
2022/04/21 01:05:11;;;;;;;;;;;20.50;34.40;;;;;;5119709;27;19973;-52
2022/04/21 01:07:39;;;;;;;;;;;20.50;34.40;;;;;;5128301;27;19923;-54
2022/04/21 01:10:06;;;;;;;;;;;20.50;34.40;;;;;;5134632;27;19924;-55
2022/04/21 01:12:33;;;;;;;;;;;20.50;34.50;;;;;;5121455;27;19923;-52
2022/04/21 01:15:01;;;;;;;;;;;20.40;34.30;;;;;;5124002;27;19994;-56
2022/04/21 01:17:32;;;;;;;;;;;20.50;34.50;;;;;;5126477;27;19923;-48
2022/04/21 01:19:59;;;;;;;;;;;20.50;34.40;;;;;;5134458;27;20382;-50
2022/04/21 01:22:28;;;;;;;;;;;20.50;34.50;;;;;;5126426;27;20371;-50
2022/04/21 01:24:55;;;;;;;;;;;20.50;34.50;;;;;;5146466;27;20325;-51
2022/04/21 01:27:23;;;;;;;;;;;20.50;34.50;;;;;;5127067;27;20466;-54
2022/04/21 01:29:50;;;;;;;;;;;20.50;34.50;;;;;;5130072;27;20013;-51
2022/04/21 01:32:16;;;;;;;;;;;20.50;34.50;;;;;;5146568;27;19931;-49
2022/04/21 01:34:43;;;;;;;;;;;20.50;34.50;;;;;;5126058;27;19938;-49
2022/04/21 01:42:43;;;;;;;;;;;20.50;34.50;;;;;;5124524;27;19983;-54
2022/04/21 01:45:10;;;;;;;;;;;20.50;35.10;;;;;;5127358;27;19923;-51
2022/04/21 01:47:37;;;;;;;;;;;20.50;34.50;;;;;;5124732;27;19927;-52
2022/04/21 01:50:07;;;;;;;;;;;20.50;34.50;;;;;;5120533;27;19977;-53
2022/04/21 01:52:35;;;;;;;;;;;20.50;34.50;;;;;;5127977;27;20014;-53
2022/04/21 01:55:04;;;;;;;;;;;20.50;34.50;;;;;;5123544;27;19980;-49
2022/04/21 01:57:30;;;;;;;;;;;20.50;34.50;;;;;;5125848;27;19959;-54
2022/04/21 01:59:57;;;;;;;;;;;20.50;34.50;;;;;;5126239;27;19927;-49
2022/04/21 02:02:24;;;;;;;;;;;20.50;34.50;;;;;;5120024;27;20021;-50
2022/04/21 02:05:10;;;;;;;;;;;20.50;34.50;;;;;;5139242;27;19933;-51
2022/04/21 02:07:45;;;;;;;;;;;20.50;34.50;;;;;;5141208;27;19931;-49
2022/04/21 02:10:14;;;;;;;;;;;20.50;34.50;;;;;;5108537;27;19934;-50
2022/04/21 02:12:40;;;;;;;;;;;20.50;34.50;;;;;;5142301;27;20010;-50
2022/04/21 02:15:08;;;;;;;;;;;20.50;34.50;;;;;;5130866;27;20349;-49
2022/04/21 02:17:35;;;;;;;;;;;20.50;34.50;;;;;;5121421;27;19924;-48
2022/04/21 02:20:02;;;;;;;;;;;20.50;34.50;;;;;;5144329;27;19923;-55
2022/04/21 02:22:29;;;;;;;;;;;20.50;34.50;;;;;;5125198;27;19954;-49
2022/04/21 02:24:55;;;;;;;;;;;20.50;34.50;;;;;;5125972;27;20540;-51
2022/04/21 02:27:23;;;;;;;;;;;20.50;34.50;;;;;;5146733;27;19931;-51
2022/04/21 02:29:52;;;;;;;;;;;20.50;34.50;;;;;;5130317;27;19967;-51
2022/04/21 02:32:18;;;;;;;;;;;20.50;34.50;;;;;;5126964;27;19923;-50
2022/04/21 02:34:45;;;;;;;;;;;20.50;34.50;;;;;;5130397;27;20026;-54
2022/04/21 02:37:12;;;;;;;;;;;20.50;34.60;;;;;;5132152;27;19934;-49
2022/04/21 02:39:39;;;;;;;;;;;20.50;34.50;;;;;;5132953;27;19923;-52
2022/04/21 02:42:05;;;;;;;;;;;20.50;34.60;;;;;;5142266;27;19968;-51
2022/04/21 02:44:34;;;;;;;;;;;20.50;34.60;;;;;;5146731;27;19963;-50
2022/04/21 02:47:00;;;;;;;;;;;20.50;34.60;;;;;;5128518;27;20326;-54
2022/04/21 02:49:27;;;;;;;;;;;20.50;34.50;;;;;;5149453;27;20039;-53
2022/04/21 02:51:54;;;;;;;;;;;20.50;34.60;;;;;;5127728;27;19938;-53
2022/04/21 02:57:24;;;;;;;;;;;20.50;34.60;;;;;;5133282;27;19923;-53
2022/04/21 02:59:52;;;;;;;;;;;20.50;34.60;;;;;;5134697;28;19924;-52
2022/04/21 03:02:20;;;;;;;;;;;20.50;34.60;;;;;;5140941;27;19933;-53
2022/04/21 03:04:46;;;;;;;;;;;20.50;34.60;;;;;;5147272;27;20010;-49
2022/04/21 03:07:15;;;;;;;;;;;20.50;34.60;;;;;;5144114;27;20128;-50
2022/04/21 03:09:41;;;;;;;;;;;20.50;34.60;;;;;;5126291;27;20034;-51
2022/04/21 03:12:09;;;;;;;;;;;20.50;34.60;;;;;;5129789;27;19930;-51
2022/04/21 03:14:36;;;;;;;;;;;20.50;35.20;;;;;;5144727;27;19923;-51
2022/04/21 03:17:05;;;;;;;;;;;20.50;34.70;;;;;;5147973;27;20008;-54
2022/04/21 03:19:31;;;;;;;;;;;20.50;34.60;;;;;;5142893;27;19963;-50
2022/04/21 03:24:42;;;;;;;;;;;20.50;34.60;;;;;;5124744;27;19934;-52
2022/04/21 03:27:09;;;;;;;;;;;20.50;34.60;;;;;;5130259;27;19949;-53
2022/04/21 03:29:43;;;;;;;;;;;20.50;34.60;;;;;;5127256;27;19973;-49
2022/04/21 03:32:13;;;;;;;;;;;20.50;34.60;;;;;;5131700;27;19923;-51
2022/04/21 03:34:41;;;;;;;;;;;20.40;34.60;;;;;;5130664;27;19937;-54
2022/04/21 03:37:08;;;;;;;;;;;20.50;34.60;;;;;;5150580;27;19923;-54
2022/04/21 03:39:35;;;;;;;;;;;20.50;34.60;;;;;;5132976;27;19924;-51
2022/04/21 03:42:02;;;;;;;;;;;20.50;34.60;;;;;;5123885;27;19923;-52
2022/04/21 03:44:33;;;;;;;;;;;20.50;34.70;;;;;;5129171;27;20010;-52
2022/04/21 03:47:00;;;;;;;;;;;20.50;34.70;;;;;;5141200;27;19950;-52
2022/04/21 03:49:29;;;;;;;;;;;20.40;34.60;;;;;;5125574;27;20337;-49
2022/04/21 03:51:55;;;;;;;;;;;20.50;34.70;;;;;;5126642;27;20017;-49
2022/04/21 03:54:22;;;;;;;;;;;20.50;34.70;;;;;;5129497;27;19923;-52
2022/04/21 03:56:49;;;;;;;;;;;20.50;34.60;;;;;;5147584;27;19927;-50
2022/04/21 03:59:16;;;;;;;;;;;20.50;34.70;;;;;;5124120;27;20455;-54
2022/04/21 04:01:43;;;;;;;;;;;20.50;34.60;;;;;;5132275;27;20350;-50
2022/04/21 04:04:09;;;;;;;;;;;20.50;34.70;;;;;;5128138;27;19924;-49
2022/04/21 04:12:06;;;;;;;;;;;20.50;34.70;;;;;;5122943;27;19930;-52
2022/04/21 04:14:33;;;;;;;;;;;20.50;34.70;;;;;;5128675;27;20443;-48
2022/04/21 04:17:00;;;;;;;;;;;20.50;34.70;;;;;;5128386;27;19982;-48
2022/04/21 04:19:27;;;;;;;;;;;20.50;34.70;;;;;;5149119;27;20302;-52
2022/04/21 04:21:55;;;;;;;;;;;20.50;34.70;;;;;;5129621;27;20400;-51
2022/04/21 04:24:21;;;;;;;;;;;20.50;34.70;;;;;;5125167;27;19923;-52
2022/04/21 04:26:48;;;;;;;;;;;20.50;34.70;;;;;;5129561;27;19924;-47
2022/04/21 04:29:22;;;;;;;;;;;20.50;34.70;;;;;;5134871;27;19962;-51
2022/04/21 04:31:49;;;;;;;;;;;20.50;34.70;;;;;;5130403;27;20380;-50
2022/04/21 04:34:16;;;;;;;;;;;20.50;34.70;;;;;;5127454;27;19952;-52
2022/04/21 04:36:43;;;;;;;;;;;20.50;34.70;;;;;;5143360;27;19923;-52
2022/04/21 04:39:12;;;;;;;;;;;20.50;34.70;;;;;;5130754;27;19929;-53
2022/04/21 04:44:19;;;;;;;;;;;20.50;34.70;;;;;;5103249;27;20337;-50
2022/04/21 04:46:44;;;;;;;;;;;20.50;34.70;;;;;;5129098;27;19924;-50
2022/04/21 04:49:11;;;;;;;;;;;20.50;34.70;;;;;;5126893;27;20395;-52
2022/04/21 04:51:41;;;;;;;;;;;20.50;34.70;;;;;;5125984;27;20341;-49
2022/04/21 04:54:08;;;;;;;;;;;20.50;34.70;;;;;;5123663;27;20006;-52
2022/04/21 04:56:37;;;;;;;;;;;20.50;34.70;;;;;;5132082;27;21677;-49
2022/04/21 04:59:03;;;;;;;;;;;20.50;34.70;;;;;;5147338;27;20348;-49
2022/04/21 05:01:31;;;;;;;;;;;20.50;34.70;;;;;;5149755;27;19962;-47
2022/04/21 05:04:01;;;;;;;;;;;20.50;34.70;;;;;;5129131;27;19962;-51
2022/04/21 05:06:28;;;;;;;;;;;20.50;34.70;;;;;;5132670;27;19971;-54
2022/04/21 05:08:55;;;;;;;;;;;20.50;34.70;;;;;;5150831;27;19938;-51
2022/04/21 05:11:22;;;;;;;;;;;20.50;35.30;;;;;;5127009;27;20388;-49
2022/04/21 05:13:50;;;;;;;;;;;20.50;34.70;;;;;;5126562;27;19924;-53
2022/04/21 05:16:17;;;;;;;;;;;20.50;34.80;;;;;;5134698;27;19923;-52
2022/04/21 05:18:44;;;;;;;;;;;20.50;34.70;;;;;;5126711;27;20376;-52
2022/04/21 05:21:11;;;;;;;;;;;20.50;34.70;;;;;;5123844;27;19923;-52
2022/04/21 05:23:37;;;;;;;;;;;20.50;34.70;;;;;;5141859;27;20015;-57
2022/04/21 05:26:04;;;;;;;;;;;20.50;34.70;;;;;;5123849;27;19931;-52
2022/04/21 05:28:32;;;;;;;;;;;20.50;34.80;;;;;;5131143;27;19934;-50
2022/04/21 05:31:00;;;;;;;;;;;20.50;34.80;;;;;;5130405;27;19929;-48
2022/04/21 05:33:27;;;;;;;;;;;20.50;34.80;;;;;;5131060;27;19961;-51
2022/04/21 05:35:55;;;;;;;;;;;20.50;34.80;;;;;;5127641;27;19923;-50
2022/04/21 05:38:22;;;;;;;;;;;20.50;34.80;;;;;;5127702;27;19973;-51
2022/04/21 05:40:49;;;;;;;;;;;20.50;34.80;;;;;;5125650;27;19935;-50
2022/04/21 05:43:16;;;;;;;;;;;20.50;34.80;;;;;;5140897;27;20000;-50
2022/04/21 05:45:43;;;;;;;;;;;20.50;34.80;;;;;;5129248;27;19924;-55
2022/04/21 05:48:12;;;;;;;;;;;20.50;34.80;;;;;;5126759;27;20396;-53
2022/04/21 05:50:39;;;;;;;;;;;20.50;34.80;;;;;;5118195;27;19923;-52
2022/04/21 05:53:06;;;;;;;;;;;20.50;34.80;;;;;;5121889;27;20000;-50
2022/04/21 05:55:35;;;;;;;;;;;20.50;34.90;;;;;;5126755;27;19946;-55
2022/04/21 05:58:02;;;;;;;;;;;20.50;35.50;;;;;;5127641;27;19927;-54
2022/04/21 06:00:29;;;;;;;;;;;20.50;34.90;;;;;;5145757;27;19937;-53
2022/04/21 06:02:56;;;;;;;;;;;20.50;34.90;;;;;;5128770;27;19932;-53
2022/04/21 06:05:25;;;;;;;;;;;20.50;34.90;;;;;;5127221;27;19953;-52
2022/04/21 06:07:51;;;;;;;;;;;20.50;34.90;;;;;;5128737;27;19984;-53
2022/04/21 06:10:18;;;;;;;;;;;20.50;34.90;;;;;;5130854;27;19965;-54
2022/04/21 06:12:45;;;;;;;;;;;20.50;34.90;;;;;;5130307;27;19936;-55
2022/04/21 06:15:12;;;;;;;;;;;20.50;34.90;;;;;;5132911;27;19923;-51
2022/04/21 06:17:39;;;;;;;;;;;20.50;34.90;;;;;;5133673;27;19928;-50
2022/04/21 06:20:06;;;;;;;;;;;20.50;34.90;;;;;;5129997;27;20017;-53
2022/04/21 06:22:34;;;;;;;;;;;20.50;34.90;;;;;;5130195;27;20512;-56
2022/04/21 06:25:01;;;;;;;;;;;20.50;34.90;;;;;;5129884;27;20010;-50
2022/04/21 06:27:27;;;;;;;;;;;20.50;34.90;;;;;;5126508;27;19926;-57
2022/04/21 06:29:54;;;;;;;;;;;20.50;34.90;;;;;;5119513;27;19927;-51
2022/04/21 06:32:21;;;;;;;;;;;20.50;34.90;;;;;;5131491;27;20377;-53
2022/04/21 06:34:50;;;;;;;;;;;20.50;34.90;;;;;;5124389;27;19948;-49
2022/04/21 06:37:17;;;;;;;;;;;20.50;34.90;;;;;;5127305;27;19927;-52
2022/04/21 06:39:45;;;;;;;;;;;20.50;34.90;;;;;;5127356;27;19928;-54
2022/04/21 06:42:11;;;;;;;;;;;20.50;34.90;;;;;;5129686;27;19931;-51
2022/04/21 06:50:07;;;;;;;;;;;20.50;34.90;;;;;;5122897;27;19928;-53
2022/04/21 06:52:34;;;;;;;;;;;20.50;34.90;;;;;;5124365;27;19954;-51
2022/04/21 06:55:02;;;;;;;;;;;20.50;34.90;;;;;;5127404;27;19924;-50
2022/04/21 06:57:29;;;;;;;;;;;20.50;34.90;;;;;;5138778;27;19970;-51
2022/04/21 06:59:56;;;;;;;;;;;20.50;34.90;;;;;;5139153;27;20468;-53
2022/04/21 07:02:27;;;;;;;;;;;20.50;34.90;;;;;;5128719;27;20022;-52
2022/04/21 07:04:54;;;;;;;;;;;20.50;35.00;;;;;;5121822;27;20026;-55
2022/04/21 07:07:20;;;;;;;;;;;20.50;35.00;;;;;;5127317;27;19976;-57
2022/04/21 07:09:47;;;;;;;;;;;20.50;34.90;;;;;;5125641;27;19926;-54
2022/04/21 07:12:17;;;;;;;;;;;20.50;34.90;;;;;;5121055;27;19927;-51
2022/04/21 07:14:43;;;;;;;;;;;20.50;35.00;;;;;;5119983;27;20000;-53
2022/04/21 07:17:10;;;;;;;;;;;20.50;35.00;;;;;;5123052;27;20042;-55
2022/04/21 07:19:37;;;;;;;;;;;20.50;35.00;;;;;;5135937;27;19934;-53
2022/04/21 07:22:04;;;;;;;;;;;20.50;35.00;;;;;;5115243;27;19961;-53
2022/04/21 07:24:33;;;;;;;;;;;20.50;34.90;;;;;;5114083;27;20003;-56
2022/04/21 07:27:00;;;;;;;;;;;20.50;34.90;;;;;;5112891;27;19988;-53
2022/04/21 07:29:30;;;;;;;;;;;20.50;34.90;;;;;;5120050;27;19936;-52
2022/04/21 07:31:57;;;;;;;;;;;20.50;34.90;;;;;;5134613;27;20021;-51
2022/04/21 07:34:24;;;;;;;;;;;20.50;34.90;;;;;;5121099;27;19927;-56
2022/04/21 07:36:51;;;;;;;;;;;20.50;34.90;;;;;;5114469;27;20023;-49
2022/04/21 07:39:18;;;;;;;;;;;20.50;35.00;;;;;;5115973;27;19923;-57
2022/04/21 07:41:45;;;;;;;;;;;20.50;34.90;;;;;;5134398;27;19949;-55
2022/04/21 07:44:12;;;;;;;;;;;20.50;34.90;;;;;;5127313;27;20070;-55
2022/04/21 07:46:40;;;;;;;;;;;20.50;34.90;;;;;;5133349;27;19924;-55
2022/04/21 07:51:51;;;;;;;;;;;20.50;35.00;;;;;;5129118;27;19953;-47
2022/04/21 07:54:17;;;;;;;;;;;20.50;34.90;;;;;;5128758;27;19929;-47
2022/04/21 07:56:44;;;;;;;;;;;20.50;34.90;;;;;;5129219;27;20017;-52
2022/04/21 07:59:11;;;;;;;;;;;20.50;34.90;;;;;;5125743;27;20054;-53
2022/04/21 08:01:37;;;;;;;;;;;20.50;34.90;;;;;;5123278;27;20030;-48
2022/04/21 08:04:05;;;;;;;;;;;20.50;34.90;;;;;;5134798;27;19926;-56
2022/04/21 08:06:32;;;;;;;;;;;20.50;34.90;;;;;;5124681;27;19955;-51
2022/04/21 08:08:59;;;;;;;;;;;20.50;34.90;;;;;;5122819;27;20156;-52
2022/04/21 08:11:26;;;;;;;;;;;20.50;34.90;;;;;;5132419;27;19949;-51
2022/04/21 08:13:52;;;;;;;;;;;20.50;34.90;;;;;;5122741;27;19994;-52
2022/04/21 08:16:22;;;;;;;;;;;20.50;34.90;;;;;;5123889;27;19927;-54
2022/04/21 08:18:52;;;;;;;;;;;20.50;34.90;;;;;;5132908;27;19938;-50
2022/04/21 08:21:20;;;;;;;;;;;20.50;35.00;;;;;;5122117;27;20329;-52
2022/04/21 08:23:47;;;;;;;;;;;20.50;34.90;;;;;;5138433;27;20324;-55
2022/04/21 08:34:28;;;;;;;;;;;20.50;35.00;;;;;;5120080;27;20033;-54
2022/04/21 08:36:57;;;;;;;;;;;20.60;35.00;;;;;;5139522;27;19924;-55
2022/04/21 08:39:24;;;;;;;;;;;20.50;34.90;;;;;;5132981;27;19930;-51
2022/04/21 08:41:52;;;;;;;;;;;20.50;35.00;;;;;;5128218;27;20017;-52
2022/04/21 08:44:19;;;;;;;;;;;20.60;35.00;;;;;;5131748;27;19927;-53
2022/04/21 08:46:46;;;;;;;;;;;20.50;35.00;;;;;;5128564;27;20022;-51
2022/04/21 08:49:13;;;;;;;;;;;20.60;35.10;;;;;;5127454;27;19927;-53
2022/04/21 08:51:40;;;;;;;;;;;20.60;35.10;;;;;;5143729;27;19927;-55
2022/04/21 08:54:08;;;;;;;;;;;20.60;35.00;;;;;;5130550;27;20038;-52
2022/04/21 08:56:35;;;;;;;;;;;20.50;35.00;;;;;;5119674;27;19972;-55
2022/04/21 08:59:02;;;;;;;;;;;20.60;35.00;;;;;;5135584;27;20308;-54
2022/04/21 09:01:29;;;;;;;;;;;20.60;35.00;;;;;;5122448;27;20022;-55
2022/04/21 09:03:56;;;;;;;;;;;20.60;35.00;;;;;;5122757;27;19956;-53
2022/04/21 09:06:23;;;;;;;;;;;20.50;35.00;;;;;;5124992;27;20459;-53
2022/04/21 09:08:51;;;;;;;;;;;20.60;35.10;;;;;;5145000;27;19931;-52
2022/04/21 09:11:20;;;;;;;;;;;20.60;35.10;;;;;;5131290;27;20423;-55
2022/04/21 09:13:47;;;;;;;;;;;20.60;35.00;;;;;;5119010;27;19927;-54
2022/04/21 09:16:20;;;;;;;;;;;20.60;35.10;;;;;;5120670;27;19923;-53
2022/04/21 09:18:47;;;;;;;;;;;20.60;35.10;;;;;;5120775;27;19950;-54
2022/04/21 09:21:15;;;;;;;;;;;20.60;35.10;;;;;;5130952;27;19947;-56
2022/04/21 09:23:43;;;;;;;;;;;20.60;35.00;;;;;;5131614;27;19935;-55
2022/04/21 09:26:10;;;;;;;;;;;20.60;35.00;;;;;;5128884;27;20283;-52
2022/04/21 09:28:38;;;;;;;;;;;20.60;35.10;;;;;;5130403;27;19927;-54
2022/04/21 09:31:06;;;;;;;;;;;20.60;35.00;;;;;;5118306;27;19930;-56
2022/04/21 09:33:33;;;;;;;;;;;20.60;35.10;;;;;;5122729;27;20398;-51
2022/04/21 09:36:03;;;;;;;;;;;20.60;35.00;;;;;;5121644;27;19954;-52
2022/04/21 09:38:30;;;;;;;;;;;20.60;35.00;;;;;;5117066;27;19984;-57
2022/04/21 09:40:57;;;;;;;;;;;20.60;35.10;;;;;;5117810;27;19971;-51
2022/04/21 09:43:27;;;;;;;;;;;20.60;35.10;;;;;;5122968;27;19992;-52
2022/04/21 09:46:10;;;;;;;;;;;20.60;35.10;;;;;;5124874;27;19955;-55
2022/04/21 09:48:37;;;;;;;;;;;20.60;35.10;;;;;;5122420;27;20297;-48
2022/04/21 09:51:07;;;;;;;;;;;20.60;34.90;;;;;;5121068;27;19927;-54
2022/04/21 09:53:45;;;;;;;;;;;20.60;34.70;;;;;;5118212;27;19927;-54
2022/04/21 09:56:12;;;;;;;;;;;20.60;34.60;;;;;;5138525;27;19990;-50
2022/04/21 09:58:39;;;;;;;;;;;20.60;34.50;;;;;;5120227;27;19931;-50
2022/04/21 10:01:07;;;;;;;;;;;20.50;34.20;;;;;;5146209;27;19958;-52
2022/04/21 10:03:34;;;;;;;;;;;20.50;34.10;;;;;;5120234;27;19928;-54
2022/04/21 10:06:01;;;;;;;;;;;20.50;34.10;;;;;;5124680;27;21060;-51
2022/04/21 10:08:29;;;;;;;;;;;20.50;34.00;;;;;;5125380;27;19927;-55
2022/04/21 10:10:55;;;;;;;;;;;20.50;34.00;;;;;;5136643;27;19923;-46
2022/04/21 10:13:22;;;;;;;;;;;20.50;33.90;;;;;;5124413;27;19931;-48
2022/04/21 10:15:49;;;;;;;;;;;20.50;33.80;;;;;;5121169;27;19931;-54
2022/04/21 10:18:17;;;;;;;;;;;20.50;33.80;;;;;;5122079;27;19956;-54
2022/04/21 10:20:44;;;;;;;;;;;20.50;34.40;;;;;;5117894;27;20337;-50
2022/04/21 10:23:13;;;;;;;;;;;20.40;33.60;;;;;;5119670;27;19923;-50
2022/04/21 10:25:40;;;;;;;;;;;20.40;33.60;;;;;;5114613;27;19950;-52
2022/04/21 10:28:26;;;;;;;;;;;20.40;33.60;;;;;;5123751;27;19942;-50
2022/04/21 10:30:53;;;;;;;;;;;20.40;33.60;;;;;;5119761;27;19934;-47
2022/04/21 10:33:21;;;;;;;;;;;20.40;33.50;;;;;;5119551;27;19931;-48
2022/04/21 10:35:48;;;;;;;;;;;20.40;33.50;;;;;;5119092;27;19923;-55
2022/04/21 10:38:17;;;;;;;;;;;20.40;33.50;;;;;;5146536;27;19934;-49
2022/04/21 10:40:54;;;;;;;;;;;20.40;33.40;;;;;;5148868;27;19928;-54
2022/04/21 10:43:20;;;;;;;;;;;20.40;33.40;;;;;;5117190;27;19923;-52
2022/04/21 10:45:51;;;;;;;;;;;20.40;33.40;;;;;;5124660;27;19923;-55
2022/04/21 10:48:27;;;;;;;;;;;20.40;33.40;;;;;;5102828;27;21672;-51
2022/04/21 10:50:54;;;;;;;;;;;20.40;33.40;;;;;;5124429;27;20011;-53
2022/04/21 10:59:06;;;;;;;;;;;20.40;33.40;;;;;;5055219;28;19935;-53
2022/04/21 11:01:33;;;;;;;;;;;20.40;33.40;;;;;;5085181;28;20429;-51
2022/04/21 11:04:17;;;;;;;;;;;20.40;33.30;;;;;;5119452;27;20034;-56
2022/04/21 11:06:44;;;;;;;;;;;20.40;33.40;;;;;;5121797;27;19919;-54
2022/04/21 11:09:30;;;;;;;;;;;20.40;33.40;;;;;;5126150;27;19923;-51
2022/04/21 11:11:57;;;;;;;;;;;20.40;33.40;;;;;;5120636;27;20376;-52
2022/04/21 11:14:31;;;;;;;;;;;20.40;33.40;;;;;;5122443;27;20252;-52
2022/04/21 11:16:58;;;;;;;;;;;20.40;33.40;;;;;;5141525;27;19973;-52
2022/04/21 11:19:40;;;;;;;;;;;20.40;33.40;;;;;;5123266;27;19936;-52
2022/04/21 11:22:07;;;;;;;;;;;20.40;33.50;;;;;;5116924;27;19923;-51
2022/04/21 11:24:53;;;;;;;;;;;20.40;33.50;;;;;;5131023;27;20011;-51
2022/04/21 11:27:20;;;;;;;;;;;20.40;33.50;;;;;;5136065;27;19938;-56
2022/04/21 11:29:47;;;;;;;;;;;20.40;33.60;;;;;;5118633;27;20368;-55
2022/04/21 11:32:15;;;;;;;;;;;20.40;33.60;;;;;;5117733;28;19924;-53
2022/04/21 11:34:43;;;;;;;;;;;20.40;33.60;;;;;;5120804;27;19929;-52
2022/04/21 11:37:10;;;;;;;;;;;20.40;33.60;;;;;;5114714;27;20011;-55
2022/04/21 11:39:38;;;;;;;;;;;20.40;33.70;;;;;;5133045;27;19958;-54
2022/04/21 11:42:05;;;;;;;;;;;20.40;33.70;;;;;;5134660;28;19981;-55
2022/04/21 11:44:32;;;;;;;;;;;20.40;33.70;;;;;;5117317;28;19923;-50
2022/04/21 11:47:00;;;;;;;;;;;20.40;33.70;;;;;;5134009;27;20332;-50
2022/04/21 11:49:27;;;;;;;;;;;20.40;33.70;;;;;;5119640;27;19972;-54
2022/04/21 11:51:55;;;;;;;;;;;20.40;33.90;;;;;;5139300;27;19930;-52
2022/04/21 11:54:22;;;;;;;;;;;20.40;33.80;;;;;;5148726;27;19968;-51
2022/04/21 11:56:49;;;;;;;;;;;20.40;33.80;;;;;;5119996;27;19932;-50
2022/04/21 11:59:16;;;;;;;;;;;20.40;33.80;;;;;;5127262;27;20275;-50
2022/04/21 12:07:17;;;;;;;;;;;20.40;33.90;;;;;;5131761;27;19931;-47
2022/04/21 12:09:44;;;;;;;;;;;20.40;33.90;;;;;;5125409;27;19970;-54
2022/04/21 12:12:11;;;;;;;;;;;20.40;33.90;;;;;;5121848;27;19992;-55
2022/04/21 12:14:40;;;;;;;;;;;20.50;34.00;;;;;;5126741;27;19923;-54
2022/04/21 12:17:07;;;;;;;;;;;20.50;34.00;;;;;;5123460;27;19923;-53
2022/04/21 12:19:34;;;;;;;;;;;20.50;34.00;;;;;;5122175;27;19939;-52
2022/04/21 12:22:06;;;;;;;;;;;20.50;34.00;;;;;;5127707;27;20280;-48
2022/04/21 12:24:34;;;;;;;;;;;20.50;34.00;;;;;;5123022;27;19948;-53
2022/04/21 12:27:01;;;;;;;;;;;20.50;34.10;;;;;;5124985;27;19923;-50
2022/04/21 12:29:31;;;;;;;;;;;20.50;34.10;;;;;;5133057;27;19931;-54
2022/04/21 12:31:58;;;;;;;;;;;20.50;34.10;;;;;;5125625;27;19938;-50
2022/04/21 12:34:26;;;;;;;;;;;20.50;34.10;;;;;;5138187;27;20363;-57
2022/04/21 12:36:52;;;;;;;;;;;20.50;34.10;;;;;;5120566;27;19950;-49
2022/04/21 12:39:19;;;;;;;;;;;20.50;34.10;;;;;;5132467;27;19930;-52
2022/04/21 12:41:48;;;;;;;;;;;20.50;34.10;;;;;;5121004;27;19938;-54
2022/04/21 12:44:15;;;;;;;;;;;20.50;34.10;;;;;;5125413;27;19943;-55
2022/04/21 12:46:42;;;;;;;;;;;20.50;34.10;;;;;;5115231;27;19927;-51
2022/04/21 12:49:09;;;;;;;;;;;20.50;34.10;;;;;;5119202;27;19928;-51
2022/04/21 12:51:35;;;;;;;;;;;20.50;34.20;;;;;;5121335;27;20014;-54
2022/04/21 12:54:02;;;;;;;;;;;20.50;34.10;;;;;;5119022;27;20019;-51
2022/04/21 12:56:33;;;;;;;;;;;20.60;34.30;;;;;;5140731;27;19927;-52
2022/04/21 12:59:01;;;;;;;;;;;20.50;34.20;;;;;;5122301;27;20372;-51
2022/04/21 13:01:28;;;;;;;;;;;20.50;34.20;;;;;;5123027;27;20698;-55
2022/04/21 13:03:55;;;;;;;;;;;20.50;34.20;;;;;;5119442;27;19928;-54
2022/04/21 13:06:25;;;;;;;;;;;20.50;34.10;;;;;;5117544;27;20026;-52
2022/04/21 13:08:52;;;;;;;;;;;20.50;34.20;;;;;;5118742;27;19920;-52
2022/04/21 13:11:19;;;;;;;;;;;20.50;34.20;;;;;;5126304;27;19927;-54
2022/04/21 13:13:46;;;;;;;;;;;20.50;34.30;;;;;;5133407;27;19923;-52
2022/04/21 13:16:14;;;;;;;;;;;20.50;34.30;;;;;;5127945;27;19923;-52
2022/04/21 13:18:41;;;;;;;;;;;20.50;34.20;;;;;;5116797;27;19982;-49
2022/04/21 13:23:52;;;;;;;;;;;20.50;34.30;;;;;;5122691;27;19931;-52
2022/04/21 13:26:20;;;;;;;;;;;20.50;34.30;;;;;;5126266;27;19987;-50
2022/04/21 13:28:47;;;;;;;;;;;20.50;34.30;;;;;;5120592;27;19927;-51
2022/04/21 13:33:59;;;;;;;;;;;20.50;34.30;;;;;;5119809;27;19942;-51
2022/04/21 13:36:26;;;;;;;;;;;20.60;34.40;;;;;;5127117;27;20054;-50
2022/04/21 13:38:52;;;;;;;;;;;20.50;34.30;;;;;;5129600;27;19931;-50
2022/04/21 13:41:20;;;;;;;;;;;20.60;34.40;;;;;;5124819;27;19927;-52
2022/04/21 13:43:47;;;;;;;;;;;20.60;34.40;;;;;;5125962;27;20367;-53
2022/04/21 13:46:16;;;;;;;;;;;20.60;34.40;;;;;;5153926;27;19938;-53
2022/04/21 13:48:43;;;;;;;;;;;20.60;34.40;;;;;;5127364;27;20019;-56
2022/04/21 13:51:10;;;;;;;;;;;20.60;34.50;;;;;;5122929;27;19929;-50
2022/04/21 13:53:37;;;;;;;;;;;20.60;34.50;;;;;;5124649;27;19949;-50
2022/04/21 13:56:06;;;;;;;;;;;20.60;34.50;;;;;;5124777;27;19927;-49
2022/04/21 13:58:32;;;;;;;;;;;20.60;34.40;;;;;;5123425;27;19924;-55
2022/04/21 14:00:59;;;;;;;;;;;20.60;34.50;;;;;;5121788;27;19932;-51
2022/04/21 14:03:28;;;;;;;;;;;20.60;34.50;;;;;;5140285;27;19932;-50
2022/04/21 14:05:55;;;;;;;;;;;20.60;34.50;;;;;;5126500;27;19927;-51
2022/04/21 14:08:22;;;;;;;;;;;20.60;34.50;;;;;;5117405;27;19931;-51
2022/04/21 14:10:48;;;;;;;;;;;20.60;34.50;;;;;;5125585;27;19931;-47
2022/04/21 14:13:16;;;;;;;;;;;20.60;34.50;;;;;;5118537;27;19963;-47
2022/04/21 14:15:43;;;;;;;;;;;20.60;34.50;;;;;;5121008;27;19927;-49
2022/04/21 14:18:10;;;;;;;;;;;20.60;34.50;;;;;;5120746;27;19976;-48
2022/04/21 14:20:38;;;;;;;;;;;20.60;34.50;;;;;;5119933;27;19923;-55
2022/04/21 14:23:07;;;;;;;;;;;20.60;34.50;;;;;;5121677;27;20003;-54
2022/04/21 14:25:34;;;;;;;;;;;20.60;34.50;;;;;;5120174;27;19984;-53
2022/04/21 14:28:01;;;;;;;;;;;20.60;34.50;;;;;;5148492;27;19923;-53
2022/04/21 14:30:28;;;;;;;;;;;20.60;34.50;;;;;;5125918;27;19966;-53
2022/04/21 14:32:55;;;;;;;;;;;20.60;34.50;;;;;;5130066;27;20791;-51
2022/04/21 14:35:22;;;;;;;;;;;20.60;34.50;;;;;;5121462;27;19934;-53
2022/04/21 14:46:04;;;;;;;;;;;20.60;34.60;;;;;;5122177;27;19924;-50
2022/04/21 14:48:31;;;;;;;;;;;20.60;34.60;;;;;;5120487;27;19931;-48
2022/04/21 14:50:58;;;;;;;;;;;20.60;34.60;;;;;;5125878;27;20808;-53
2022/04/21 14:53:26;;;;;;;;;;;20.60;34.60;;;;;;5124260;27;19952;-51
2022/04/21 14:55:53;;;;;;;;;;;20.60;34.60;;;;;;5119707;27;20373;-49
2022/04/21 14:58:20;;;;;;;;;;;20.60;34.60;;;;;;5119642;27;19928;-56
2022/04/21 15:00:47;;;;;;;;;;;20.60;34.60;;;;;;5117233;27;20469;-52
2022/04/21 15:03:14;;;;;;;;;;;20.60;34.60;;;;;;5136849;27;19967;-52
2022/04/21 15:05:41;;;;;;;;;;;20.60;34.60;;;;;;5134806;27;19938;-50
2022/04/21 15:08:09;;;;;;;;;;;20.60;34.60;;;;;;5138690;27;19958;-50
2022/04/21 15:10:39;;;;;;;;;;;20.60;34.60;;;;;;5120011;27;20251;-53
2022/04/21 15:13:07;;;;;;;;;;;20.60;34.70;;;;;;5123402;27;19924;-52
2022/04/21 15:15:33;;;;;;;;;;;20.60;34.60;;;;;;5116348;27;19927;-53
2022/04/21 15:18:00;;;;;;;;;;;20.60;34.60;;;;;;5120731;27;19938;-49
2022/04/21 15:20:28;;;;;;;;;;;20.60;34.70;;;;;;5118830;27;19927;-51
2022/04/21 15:22:55;;;;;;;;;;;20.60;34.70;;;;;;5120789;27;20247;-48
2022/04/21 15:25:22;;;;;;;;;;;20.60;34.70;;;;;;5134040;27;20380;-46